AAF weather

Apalachicola Regional Airport
Apalachicola, Florida, United States

Public forecast

Using degrees Fahrenheit for public forecast. Weather courtesy of forecast.io.

METAR (pilot weather report)

Retrieved 2019/07/21 04:53 UTC (44 minutes ago):

KAAF 210453Z AUTO 32003KT 10SM CLR 24/22 A3005 RMK AO2 SLP174 T02390217 403060222 $

TAF (pilot weather forecast)

Forecast is more than 12 hours old.

Closest forecast is Tyndall Air Force Base, 35.1 nm (65.1 km) NW. Retrieved 2019/07/19 18:09 UTC (1 day ago):

TAF TAF KPAM 191800Z 1918/2024 33010KT 9999 VCTS SCT025CB SCT065 BKN210 QNH3004INS TEMPO 1918/1920 33012G18KT 8000 -TSRA BKN025CB BECMG 1920/1921 24010KT 9999 NSW FEW030 SCT200 QNH2998INS BECMG 2013/2014 24009KT 9000 -SHRA VCTS SCT030CB QNH3001INS TEMPO 2014/2020 24010G15KT 6000 -TSRA BKN025CB TX31/1920Z TN28/2011Z LAST NO AMDS AFT 1922 NEXT 2210